Time;durP1;ratioP1;P1;durP2;ratioP2;P2;SDS_P1;SDS_P2;PMS_P1;PMS_P2;Temp;Humidity;BMP_temperature;BMP_pressure;BME280_temperature;BME280_humidity;BME280_pressure;Samples;Min_cycle;Max_cycle;Signal;HPM_P1;HPM_P2
2023/01/31 00:01:07;;;;;;;13.95;6.03;;;13.20;99.90;;;;;;5096209;28;20127;-70
2023/01/31 00:03:34;;;;;;;11.30;5.72;;;13.20;99.90;;;;;;5094689;28;20136;-65
2023/01/31 00:06:20;;;;;;;11.95;6.47;;;13.30;99.90;;;;;;5092955;28;20444;-66
2023/01/31 00:08:49;;;;;;;11.75;4.68;;;13.30;99.90;;;;;;5085727;28;20104;-64
2023/01/31 00:11:17;;;;;;;6.68;4.40;;;13.30;99.90;;;;;;5095351;28;20528;-66
2023/01/31 00:13:44;;;;;;;8.45;4.43;;;13.30;99.90;;;;;;5096856;28;20089;-66
2023/01/31 00:16:12;;;;;;;8.23;4.22;;;13.20;99.90;;;;;;5093284;28;20523;-64
2023/01/31 00:18:39;;;;;;;7.95;4.20;;;13.20;99.90;;;;;;5092111;28;20080;-65
2023/01/31 00:21:12;;;;;;;8.57;4.47;;;13.10;99.90;;;;;;5093696;28;20176;-62
2023/01/31 00:23:40;;;;;;;8.48;4.63;;;13.10;99.90;;;;;;5100723;28;20565;-65
2023/01/31 00:26:17;;;;;;;8.95;5.30;;;13.00;99.90;;;;;;5101824;28;20088;-65
2023/01/31 00:28:45;;;;;;;12.63;5.18;;;13.00;99.90;;;;;;5101307;28;20089;-65
2023/01/31 00:31:13;;;;;;;9.27;4.80;;;13.00;99.90;;;;;;5098916;28;20071;-66
2023/01/31 00:33:41;;;;;;;11.07;5.18;;;13.00;99.90;;;;;;5093767;28;20084;-65
2023/01/31 00:36:11;;;;;;;8.68;4.82;;;13.00;99.90;;;;;;5104798;28;20144;-64
2023/01/31 00:38:38;;;;;;;9.13;5.00;;;13.00;99.90;;;;;;5100300;28;20465;-65
2023/01/31 00:41:05;;;;;;;9.65;4.70;;;13.00;99.90;;;;;;5096305;28;20096;-65
2023/01/31 00:43:34;;;;;;;11.88;4.75;;;12.90;99.90;;;;;;5100508;28;20463;-65
2023/01/31 00:46:01;;;;;;;7.93;4.78;;;12.90;99.90;;;;;;5098347;28;20170;-69
2023/01/31 00:48:27;;;;;;;9.23;4.82;;;12.90;99.90;;;;;;5097489;28;20071;-65
2023/01/31 00:50:54;;;;;;;11.50;4.80;;;12.90;99.90;;;;;;5099730;28;20056;-64
2023/01/31 00:53:24;;;;;;;;;;;12.90;99.90;;;;;;5101185;28;20102;-66
2023/01/31 00:55:52;;;;;;;9.05;4.47;;;12.90;99.90;;;;;;5094350;28;19947;-64
2023/01/31 00:58:19;;;;;;;7.40;3.95;;;12.90;99.90;;;;;;5100220;28;20075;-65
2023/01/31 01:00:46;;;;;;;8.43;4.30;;;12.90;99.90;;;;;;5098057;28;20117;-66
2023/01/31 01:03:12;;;;;;;6.45;3.45;;;12.80;99.90;;;;;;5094755;28;20098;-64
2023/01/31 01:05:39;;;;;;;10.40;4.70;;;12.80;99.90;;;;;;5102797;28;20060;-66
2023/01/31 01:08:05;;;;;;;;;;;12.80;99.90;;;;;;5100399;28;20584;-64
2023/01/31 01:10:32;;;;;;;7.15;4.10;;;12.70;99.90;;;;;;5099634;28;19977;-66
2023/01/31 01:12:58;;;;;;;10.43;4.82;;;12.70;99.90;;;;;;5101531;28;20075;-64
2023/01/31 01:15:24;;;;;;;;;;;12.60;99.90;;;;;;5094685;28;20080;-64
2023/01/31 01:17:51;;;;;;;10.68;4.90;;;12.60;99.90;;;;;;5098422;28;19972;-62
2023/01/31 01:20:17;;;;;;;;;;;12.60;99.90;;;;;;5093430;28;20063;-64
2023/01/31 01:22:43;;;;;;;12.60;4.95;;;12.50;99.90;;;;;;5097956;28;19951;-63
2023/01/31 01:25:09;;;;;;;;;;;12.50;99.90;;;;;;5091355;28;20564;-63
2023/01/31 01:27:36;;;;;;;11.30;4.57;;;12.50;99.90;;;;;;5093146;28;19955;-67
2023/01/31 01:30:06;;;;;;;9.02;4.18;;;12.50;99.90;;;;;;5092618;28;20064;-64
2023/01/31 01:32:32;;;;;;;9.50;4.90;;;12.50;99.90;;;;;;5093069;28;20065;-62
2023/01/31 01:34:58;;;;;;;;;;;12.60;99.90;;;;;;5101886;28;20114;-62
2023/01/31 01:37:25;;;;;;;9.18;4.60;;;12.50;99.90;;;;;;5094696;28;20093;-63
2023/01/31 01:39:52;;;;;;;8.98;4.03;;;12.50;99.90;;;;;;5089234;28;20514;-62
2023/01/31 01:42:23;;;;;;;9.45;4.40;;;12.50;99.90;;;;;;5089169;28;20524;-63
2023/01/31 01:44:54;;;;;;;8.07;4.38;;;12.50;99.90;;;;;;5070561;28;20174;-64
2023/01/31 01:47:43;;;;;;;8.32;3.65;;;12.50;99.90;;;;;;5070986;28;20164;-69
2023/01/31 01:50:22;;;;;;;7.43;3.70;;;12.50;99.90;;;;;;5071604;28;20069;-62
2023/01/31 01:52:57;;;;;;;8.82;5.18;;;12.50;99.90;;;;;;5068510;28;20073;-62
2023/01/31 01:55:37;;;;;;;8.27;4.55;;;12.50;99.90;;;;;;5069816;28;20090;-62
2023/01/31 01:58:09;;;;;;;6.90;4.63;;;12.50;99.90;;;;;;5068064;28;20065;-62
2023/01/31 02:00:37;;;;;;;9.32;4.95;;;12.50;99.90;;;;;;5061440;28;20436;-62
2023/01/31 02:03:06;;;;;;;10.00;4.95;;;12.40;99.90;;;;;;5071763;28;20089;-64
2023/01/31 02:05:41;;;;;;;8.48;4.75;;;12.40;99.90;;;;;;5074002;28;20064;-62
2023/01/31 02:08:09;;;;;;;11.02;4.65;;;12.50;99.90;;;;;;5068698;28;20071;-62
2023/01/31 02:10:43;;;;;;;14.77;5.90;;;12.40;99.90;;;;;;5061267;28;20062;-63
2023/01/31 02:13:11;;;;;;;10.45;5.68;;;12.50;99.90;;;;;;5069600;28;20445;-61
2023/01/31 02:15:37;;;;;;;11.35;6.68;;;12.50;99.90;;;;;;5072139;28;20203;-63
2023/01/31 02:18:04;;;;;;;;;;;12.40;99.90;;;;;;5062780;28;20071;-63
2023/01/31 02:21:05;;;;;;;13.67;5.93;;;12.40;99.90;;;;;;5072549;28;20334;-66
2023/01/31 02:23:54;;;;;;;9.20;5.05;;;12.30;99.90;;;;;;5071321;28;20082;-65
2023/01/31 02:27:03;;;;;;;9.35;5.35;;;12.40;99.90;;;;;;5066000;28;20091;-64
2023/01/31 02:29:33;;;;;;;13.20;5.00;;;12.30;99.90;;;;;;5063174;28;20564;-66
2023/01/31 02:32:20;;;;;;;8.30;4.35;;;12.30;99.90;;;;;;5070793;28;20068;-64
2023/01/31 02:35:00;;;;;;;8.15;3.65;;;12.20;99.90;;;;;;5063262;28;20380;-63
2023/01/31 02:37:55;;;;;;;9.60;4.13;;;12.20;99.90;;;;;;5064196;28;20084;-63
2023/01/31 02:40:41;;;;;;;6.28;3.53;;;12.20;99.90;;;;;;5068250;28;20144;-62
2023/01/31 02:43:24;;;;;;;8.55;3.90;;;12.30;99.90;;;;;;5072560;28;20126;-63
2023/01/31 02:46:22;;;;;;;13.25;3.42;;;12.20;99.90;;;;;;5086237;28;20070;-63
2023/01/31 02:48:57;;;;;;;8.00;3.97;;;12.10;99.90;;;;;;5030696;28;20081;-64
2023/01/31 02:51:32;;;;;;;9.85;3.58;;;12.10;99.90;;;;;;5033657;28;20148;-63
2023/01/31 02:54:20;;;;;;;14.68;7.88;;;12.10;99.90;;;;;;5033269;28;20118;-63
2023/01/31 02:56:49;;;;;;;8.38;4.90;;;12.00;99.90;;;;;;5031836;28;20067;-64
2023/01/31 02:59:25;;;;;;;6.68;3.47;;;12.00;99.90;;;;;;5031471;28;20078;-63
2023/01/31 03:02:01;;;;;;;6.30;3.20;;;12.00;99.90;;;;;;5034526;28;20431;-64
2023/01/31 03:04:36;;;;;;;4.70;2.83;;;12.00;99.90;;;;;;5035884;28;20064;-66
2023/01/31 03:07:15;;;;;;;6.43;3.05;;;12.00;99.90;;;;;;5031807;28;20073;-66
2023/01/31 03:09:52;;;;;;;7.07;2.50;;;11.90;99.90;;;;;;5032575;28;20292;-65
2023/01/31 03:12:25;;;;;;;7.65;3.00;;;11.90;99.90;;;;;;5029235;28;20139;-62
2023/01/31 03:15:16;;;;;;;8.48;2.92;;;11.90;99.90;;;;;;5040068;28;20649;-64
2023/01/31 03:17:58;;;;;;;9.13;2.97;;;11.90;99.90;;;;;;5028375;28;20069;-63
2023/01/31 03:20:31;;;;;;;8.38;2.97;;;11.90;99.90;;;;;;5029708;28;20079;-62
2023/01/31 03:22:59;;;;;;;7.07;2.78;;;11.90;99.90;;;;;;5031219;28;20076;-65
2023/01/31 03:25:31;;;;;;;10.57;3.30;;;11.90;99.90;;;;;;5064719;28;20466;-63
2023/01/31 03:28:01;;;;;;;7.07;3.92;;;11.90;99.90;;;;;;5084998;28;20534;-62
2023/01/31 03:30:47;;;;;;;9.15;3.60;;;11.80;99.90;;;;;;5086965;28;20459;-62
2023/01/31 03:33:22;;;;;;;8.98;3.25;;;11.80;99.90;;;;;;5086003;28;20075;-61
2023/01/31 03:35:57;;;;;;;12.75;3.10;;;11.80;99.90;;;;;;5086539;28;20090;-65
2023/01/31 03:38:50;;;;;;;8.93;2.90;;;11.80;99.90;;;;;;5088868;28;20067;-62
2023/01/31 03:41:28;;;;;;;6.10;2.30;;;11.90;99.90;;;;;;5076546;28;20080;-63
2023/01/31 03:44:01;;;;;;;4.43;2.08;;;11.90;99.90;;;;;;5087641;28;20158;-63
2023/01/31 03:46:34;;;;;;;5.93;2.25;;;11.80;99.90;;;;;;5089391;28;20125;-63
2023/01/31 03:49:03;;;;;;;5.72;1.95;;;11.80;99.90;;;;;;5086165;28;20419;-62
2023/01/31 03:51:32;;;;;;;3.88;2.00;;;11.80;99.90;;;;;;5086990;28;20094;-62
2023/01/31 03:54:04;;;;;;;4.63;1.73;;;11.80;99.90;;;;;;5084876;28;20158;-63
2023/01/31 03:56:41;;;;;;;5.65;2.88;;;11.80;99.90;;;;;;5086685;28;20068;-62
2023/01/31 03:59:14;;;;;;;3.63;1.80;;;11.80;99.90;;;;;;5089604;28;20108;-63
2023/01/31 04:01:47;;;;;;;7.65;1.77;;;11.70;99.90;;;;;;5086837;28;20428;-63
2023/01/31 04:04:22;;;;;;;6.03;1.60;;;11.80;99.90;;;;;;5086860;28;20134;-62
2023/01/31 04:06:49;;;;;;;5.05;2.13;;;11.70;99.90;;;;;;5087120;28;20072;-61
2023/01/31 04:09:16;;;;;;;6.13;2.35;;;11.60;99.90;;;;;;5086014;28;20077;-62
2023/01/31 04:11:48;;;;;;;6.07;2.20;;;11.70;99.90;;;;;;5083220;28;20079;-62
2023/01/31 04:14:15;;;;;;;5.78;2.42;;;11.70;99.90;;;;;;5088540;28;20081;-62
2023/01/31 04:16:42;;;;;;;6.00;2.25;;;11.70;99.90;;;;;;5086487;28;20072;-62
2023/01/31 04:19:09;;;;;;;9.48;2.80;;;11.60;99.90;;;;;;5087627;28;20150;-63
2023/01/31 04:21:35;;;;;;;11.40;2.70;;;11.60;99.90;;;;;;5090110;28;20168;-64
2023/01/31 04:24:02;;;;;;;8.18;2.92;;;11.50;99.90;;;;;;5090390;28;20083;-62
2023/01/31 04:26:28;;;;;;;;;;;11.60;99.90;;;;;;5086533;28;20071;-63
2023/01/31 04:28:54;;;;;;;8.30;3.42;;;11.50;99.90;;;;;;5091584;28;20055;-63
2023/01/31 04:31:20;;;;;;;9.05;3.75;;;11.50;99.90;;;;;;5094210;28;20507;-64
2023/01/31 04:33:46;;;;;;;;;;;11.50;99.90;;;;;;5092300;28;20167;-65
2023/01/31 04:36:13;;;;;;;13.10;4.47;;;11.50;99.90;;;;;;5094276;28;20047;-64
2023/01/31 04:38:39;;;;;;;10.82;3.75;;;11.40;99.90;;;;;;5092780;28;20539;-65
2023/01/31 04:41:05;;;;;;;;;;;11.50;99.90;;;;;;5095801;28;21033;-65
2023/01/31 04:43:32;;;;;;;10.10;3.53;;;11.50;99.90;;;;;;5098796;28;20445;-63
2023/01/31 04:45:58;;;;;;;8.43;3.78;;;11.50;99.90;;;;;;5093590;28;20074;-65
2023/01/31 04:48:24;;;;;;;;;;;11.50;99.90;;;;;;5093596;28;20085;-65
2023/01/31 04:50:51;;;;;;;8.55;3.88;;;11.40;99.90;;;;;;5097583;28;19960;-65
2023/01/31 04:53:17;;;;;;;;;;;11.50;99.90;;;;;;5091935;28;20082;-68
2023/01/31 04:55:43;;;;;;;7.90;3.05;;;11.50;99.90;;;;;;5092868;28;20019;-65
2023/01/31 04:58:09;;;;;;;;;;;11.50;99.90;;;;;;5092474;28;20060;-65
2023/01/31 05:00:35;;;;;;;9.98;3.90;;;11.50;99.90;;;;;;5096056;28;19952;-66
2023/01/31 05:03:02;;;;;;;;;;;11.50;99.90;;;;;;5096710;28;20063;-64
2023/01/31 05:05:28;;;;;;;7.00;3.58;;;11.40;99.90;;;;;;5097747;28;19957;-67
2023/01/31 05:07:55;;;;;;;8.15;3.15;;;11.40;99.90;;;;;;5097967;28;20083;-67
2023/01/31 05:10:21;;;;;;;12.23;3.95;;;11.40;99.90;;;;;;5100734;28;20500;-67
2023/01/31 05:12:47;;;;;;;;;;;11.40;99.90;;;;;;5086976;28;20131;-64
2023/01/31 05:15:14;;;;;;;9.73;4.63;;;11.40;99.90;;;;;;5090807;28;19976;-65
2023/01/31 05:17:40;;;;;;;5.80;3.17;;;11.40;99.90;;;;;;5094298;28;20068;-65
2023/01/31 05:20:07;;;;;;;;;;;11.30;99.90;;;;;;5098828;28;20100;-66
2023/01/31 05:22:33;;;;;;;5.68;3.10;;;11.30;99.90;;;;;;5100614;28;19952;-67
2023/01/31 05:25:00;;;;;;;4.85;2.80;;;11.20;99.90;;;;;;5101229;28;20619;-67
2023/01/31 05:27:26;;;;;;;5.90;3.17;;;11.30;99.90;;;;;;5097938;28;20548;-66
2023/01/31 05:29:53;;;;;;;5.43;2.58;;;11.30;99.90;;;;;;5096933;28;20062;-64
2023/01/31 05:32:20;;;;;;;8.68;2.85;;;11.30;99.90;;;;;;5103685;28;20566;-66
2023/01/31 05:34:46;;;;;;;;;;;11.30;99.90;;;;;;5106560;28;20096;-64
2023/01/31 05:37:12;;;;;;;7.88;3.22;;;11.20;99.90;;;;;;5099936;28;19959;-65
2023/01/31 05:39:38;;;;;;;;;;;11.20;99.90;;;;;;5099637;28;20071;-65
2023/01/31 05:42:05;;;;;;;7.95;3.40;;;11.30;99.90;;;;;;5097042;28;19953;-65
2023/01/31 05:44:32;;;;;;;8.90;3.47;;;11.20;99.90;;;;;;5098982;28;20535;-65
2023/01/31 05:46:59;;;;;;;6.88;2.60;;;11.20;99.90;;;;;;5099925;28;20088;-66
2023/01/31 05:49:30;;;;;;;5.25;2.67;;;11.30;99.90;;;;;;5101442;28;20069;-66
2023/01/31 05:51:57;;;;;;;7.45;3.03;;;11.30;99.90;;;;;;5103274;28;20117;-65
2023/01/31 05:54:23;;;;;;;;;;;11.20;99.90;;;;;;5099451;28;20084;-68
2023/01/31 05:56:49;;;;;;;8.60;3.60;;;11.20;99.90;;;;;;5096953;28;19960;-67
2023/01/31 05:59:15;;;;;;;;;;;11.20;99.90;;;;;;5102061;28;20110;-67
2023/01/31 06:01:42;;;;;;;6.82;2.55;;;11.20;99.90;;;;;;5097155;28;19979;-65
2023/01/31 06:04:09;;;;;;;;;;;11.10;99.90;;;;;;5095684;28;20070;-66
2023/01/31 06:06:35;;;;;;;7.88;2.88;;;11.00;99.90;;;;;;5099907;28;19956;-65
2023/01/31 06:09:01;;;;;;;6.68;2.17;;;11.00;99.90;;;;;;5103014;28;20069;-65
2023/01/31 06:11:28;;;;;;;4.97;2.13;;;11.10;99.90;;;;;;5098402;28;20075;-64
2023/01/31 06:13:56;;;;;;;;;;;11.10;99.90;;;;;;5090417;28;20084;-65
2023/01/31 06:16:23;;;;;;;8.40;2.95;;;11.00;99.90;;;;;;5097587;28;19961;-64
2023/01/31 06:18:50;;;;;;;6.38;2.88;;;11.00;99.90;;;;;;5094415;28;20151;-65
2023/01/31 06:21:16;;;;;;;;;;;10.80;99.90;;;;;;5091857;28;20061;-65
2023/01/31 06:23:45;;;;;;;6.35;2.53;;;10.90;99.90;;;;;;5096993;28;19959;-66
2023/01/31 06:26:12;;;;;;;5.40;2.42;;;10.90;99.90;;;;;;5096698;28;20085;-67
2023/01/31 06:28:38;;;;;;;5.75;2.90;;;10.80;99.90;;;;;;5099128;28;20068;-66
2023/01/31 06:31:08;;;;;;;;;;;10.90;99.90;;;;;;5100251;28;20074;-67
2023/01/31 06:33:35;;;;;;;8.15;2.97;;;10.80;99.90;;;;;;5099340;28;19952;-65
2023/01/31 06:36:02;;;;;;;6.07;3.30;;;10.70;99.90;;;;;;5100032;28;20087;-66
2023/01/31 06:38:29;;;;;;;5.95;2.20;;;10.70;99.90;;;;;;5095329;28;20068;-67
2023/01/31 06:40:55;;;;;;;7.13;2.28;;;10.70;99.90;;;;;;5096121;28;20514;-65
2023/01/31 06:43:21;;;;;;;;;;;10.80;99.90;;;;;;5098132;28;20115;-67
2023/01/31 06:45:48;;;;;;;5.63;2.30;;;10.80;99.90;;;;;;5096879;28;20014;-68
2023/01/31 06:48:15;;;;;;;4.50;2.03;;;10.80;99.90;;;;;;5099578;28;20164;-65
2023/01/31 06:50:43;;;;;;;5.22;2.00;;;10.80;99.90;;;;;;5097897;28;20135;-65
2023/01/31 06:53:09;;;;;;;4.88;2.17;;;10.80;99.90;;;;;;5097418;28;20598;-66
2023/01/31 06:55:35;;;;;;;;;;;10.80;99.90;;;;;;5099093;28;20084;-64
2023/01/31 06:58:02;;;;;;;5.25;1.95;;;10.80;99.90;;;;;;5094155;28;20013;-67
2023/01/31 07:00:28;;;;;;;;;;;10.70;99.90;;;;;;5096753;28;20096;-68
2023/01/31 07:02:55;;;;;;;3.70;1.20;;;10.80;99.90;;;;;;5098071;28;19953;-69
2023/01/31 07:05:22;;;;;;;2.97;1.50;;;10.80;99.90;;;;;;5101429;28;20087;-68
2023/01/31 07:07:49;;;;;;;4.82;1.40;;;10.80;99.90;;;;;;5096983;28;20075;-67
2023/01/31 07:10:16;;;;;;;2.90;1.30;;;10.80;99.90;;;;;;5095202;28;20076;-67
2023/01/31 07:12:43;;;;;;;2.83;1.40;;;10.70;99.90;;;;;;5093517;28;20073;-67
2023/01/31 07:15:10;;;;;;;;;;;10.80;99.90;;;;;;5093990;28;20084;-66
2023/01/31 07:17:36;;;;;;;2.63;1.40;;;10.70;99.90;;;;;;5096128;28;20229;-66
2023/01/31 07:20:03;;;;;;;7.65;1.80;;;10.70;99.90;;;;;;5098422;28;20072;-68
2023/01/31 07:22:30;;;;;;;4.88;1.60;;;10.70;99.90;;;;;;5093818;28;20513;-68
2023/01/31 07:24:56;;;;;;;4.72;1.55;;;10.70;99.90;;;;;;5096660;28;20072;-68
2023/01/31 07:27:23;;;;;;;;;;;10.70;99.90;;;;;;5098380;28;20121;-66
2023/01/31 07:29:49;;;;;;;4.35;1.48;;;10.70;99.90;;;;;;5097074;28;19956;-67
2023/01/31 07:32:15;;;;;;;;;;;10.80;99.90;;;;;;5099842;28;20072;-66
2023/01/31 07:34:41;;;;;;;4.15;1.30;;;10.80;99.90;;;;;;5096946;28;19972;-66
2023/01/31 07:37:08;;;;;;;;;;;10.80;99.90;;;;;;5096953;28;20459;-64
2023/01/31 07:39:34;;;;;;;6.38;1.80;;;10.80;99.90;;;;;;5092971;28;19949;-66
2023/01/31 07:42:00;;;;;;;;;;;10.80;99.90;;;;;;5097438;28;20064;-66
2023/01/31 07:44:26;;;;;;;3.88;1.30;;;10.80;99.90;;;;;;5095909;28;19995;-66
2023/01/31 07:46:53;;;;;;;;;;;10.80;99.90;;;;;;5097569;28;20104;-68
2023/01/31 07:49:20;;;;;;;3.58;1.48;;;10.80;99.90;;;;;;5095589;28;19953;-66
2023/01/31 07:51:46;;;;;;;2.92;1.83;;;10.80;99.90;;;;;;5094802;28;20081;-68
2023/01/31 07:54:12;;;;;;;;;;;10.90;99.90;;;;;;5095910;28;20088;-68
2023/01/31 07:56:39;;;;;;;7.07;2.10;;;10.80;99.90;;;;;;5097175;28;19953;-68
2023/01/31 07:59:05;;;;;;;7.72;1.85;;;10.70;99.90;;;;;;5096241;28;20067;-67
2023/01/31 08:04:16;;;;;;;8.48;2.30;;;10.80;99.90;;;;;;5094782;28;19955;-70
2023/01/31 08:06:44;;;;;;;10.30;2.80;;;10.70;99.90;;;;;;5097167;28;20069;-70
2023/01/31 08:09:11;;;;;;;10.13;2.38;;;10.70;99.90;;;;;;5094809;28;20074;-70
2023/01/31 08:11:37;;;;;;;;;;;10.80;99.90;;;;;;5096298;28;20444;-70
2023/01/31 08:14:03;;;;;;;9.57;2.03;;;10.80;99.90;;;;;;5092886;28;20095;-69
2023/01/31 08:16:30;;;;;;;4.00;1.45;;;10.70;99.90;;;;;;5091577;28;20069;-71
2023/01/31 08:18:57;;;;;;;6.55;1.70;;;10.70;99.90;;;;;;5094243;28;20084;-68
2023/01/31 08:21:23;;;;;;;6.40;1.52;;;10.70;99.90;;;;;;5093284;28;20080;-68
2023/01/31 08:23:50;;;;;;;6.78;1.90;;;10.70;99.90;;;;;;5100339;28;20124;-69
2023/01/31 08:26:17;;;;;;;;;;;10.70;99.90;;;;;;5095260;28;20447;-66
2023/01/31 08:28:45;;;;;;;;;;;10.60;99.90;;;;;;5098845;28;20101;-67
2023/01/31 08:31:15;;;;;;;;;;;10.50;99.90;;;;;;5092190;28;19953;-69
2023/01/31 08:33:41;;;;;;;4.15;1.40;;;10.60;99.90;;;;;;5097316;28;19953;-67
2023/01/31 08:36:23;;;;;;;5.53;1.30;;;10.60;99.90;;;;;;5096043;28;20065;-69
2023/01/31 08:38:50;;;;;;;4.03;1.40;;;10.60;99.90;;;;;;5091960;28;20084;-66
2023/01/31 08:41:18;;;;;;;5.18;1.10;;;10.60;99.90;;;;;;5096351;28;20063;-69
2023/01/31 08:43:47;;;;;;;3.03;1.27;;;10.70;99.90;;;;;;5102367;28;20165;-68
2023/01/31 08:46:14;;;;;;;2.88;1.45;;;10.60;99.90;;;;;;5098034;28;20072;-69
2023/01/31 08:48:42;;;;;;;4.15;1.40;;;10.60;99.90;;;;;;5096732;28;20127;-68
2023/01/31 08:51:11;;;;;;;2.53;1.20;;;10.60;99.90;;;;;;5098470;27;20425;-68
2023/01/31 08:53:43;;;;;;;4.70;1.40;;;10.60;99.90;;;;;;5101238;28;20148;-68
2023/01/31 08:56:11;;;;;;;4.72;1.33;;;10.50;99.90;;;;;;5096652;28;20088;-68
2023/01/31 08:58:40;;;;;;;4.13;1.10;;;10.50;99.90;;;;;;5097838;28;20070;-68
2023/01/31 09:01:12;;;;;;;3.00;1.30;;;10.50;99.90;;;;;;5099988;28;20162;-66
2023/01/31 09:03:39;;;;;;;4.00;1.40;;;10.50;99.90;;;;;;5092867;28;20066;-67
2023/01/31 09:06:10;;;;;;;5.80;1.50;;;10.60;99.90;;;;;;5100801;28;20138;-69
2023/01/31 09:08:36;;;;;;;6.90;1.60;;;10.60;99.90;;;;;;5100097;28;20602;-68
2023/01/31 09:11:02;;;;;;;;;;;10.60;99.90;;;;;;5102004;28;20088;-68
2023/01/31 09:13:30;;;;;;;3.72;1.50;;;10.60;99.90;;;;;;5098783;28;19958;-67
2023/01/31 09:16:06;;;;;;;5.65;1.65;;;10.60;99.90;;;;;;5094930;28;20648;-67
2023/01/31 09:18:34;;;;;;;4.97;1.30;;;10.70;99.90;;;;;;5094447;28;20069;-67
2023/01/31 09:21:11;;;;;;;4.80;1.60;;;10.60;99.90;;;;;;5102258;28;20128;-69
2023/01/31 09:23:37;;;;;;;;;;;10.60;99.90;;;;;;5097907;28;20065;-66
2023/01/31 09:26:05;;;;;;;3.63;1.40;;;10.70;99.90;;;;;;5096787;28;20022;-67
2023/01/31 09:28:31;;;;;;;5.75;1.30;;;10.60;99.90;;;;;;5096703;28;20084;-65
2023/01/31 09:31:10;;;;;;;2.72;0.98;;;10.60;99.90;;;;;;5101661;28;20198;-65
2023/01/31 09:33:37;;;;;;;6.60;1.50;;;10.60;99.90;;;;;;5098357;28;20068;-67
2023/01/31 09:36:06;;;;;;;5.38;1.45;;;10.60;99.90;;;;;;5098994;28;20157;-67
2023/01/31 09:38:33;;;;;;;4.32;1.90;;;10.50;99.90;;;;;;5102861;28;20093;-68
2023/01/31 09:41:06;;;;;;;4.70;1.48;;;10.50;99.90;;;;;;5095117;28;20068;-67
2023/01/31 09:43:43;;;;;;;4.38;1.60;;;10.50;99.90;;;;;;5099204;28;20111;-66
2023/01/31 09:46:15;;;;;;;5.13;1.45;;;10.50;99.90;;;;;;5096260;28;20062;-66
2023/01/31 09:48:46;;;;;;;2.70;1.33;;;10.60;99.90;;;;;;5096840;28;20143;-68
2023/01/31 09:51:13;;;;;;;4.40;1.52;;;10.50;99.90;;;;;;5102019;28;20076;-67
2023/01/31 09:53:41;;;;;;;2.85;1.30;;;10.60;99.90;;;;;;5093797;28;20064;-67
2023/01/31 09:56:41;;;;;;;3.00;1.23;;;10.60;99.90;;;;;;5097383;28;20401;-67
2023/01/31 09:59:34;;;;;;;4.40;1.73;;;10.60;99.90;;;;;;5097126;28;20061;-65
2023/01/31 10:02:29;;;;;;;3.60;1.50;;;10.70;99.90;;;;;;5095868;28;20062;-67
2023/01/31 10:05:28;;;;;;;4.53;1.38;;;10.60;99.90;;;;;;5097363;28;20148;-67
2023/01/31 10:08:22;;;;;;;5.90;1.50;;;10.60;99.90;;;;;;5091940;28;20076;-68
2023/01/31 10:10:53;;;;;;;6.13;1.70;;;10.60;99.90;;;;;;5093617;28;20134;-67
2023/01/31 10:13:38;;;;;;;2.97;1.50;;;10.60;99.90;;;;;;5098740;28;20080;-65
2023/01/31 10:16:22;;;;;;;3.58;1.30;;;10.70;99.90;;;;;;5093283;28;20081;-67
2023/01/31 10:18:58;;;;;;;5.80;1.80;;;10.60;99.90;;;;;;5093843;28;20060;-65
2023/01/31 10:21:48;;;;;;;6.75;1.65;;;10.60;99.90;;;;;;5095634;28;20086;-64
2023/01/31 10:24:50;;;;;;;4.63;1.63;;;10.60;99.90;;;;;;5098250;28;20072;-65
2023/01/31 10:27:44;;;;;;;8.50;1.60;;;10.60;99.90;;;;;;5093827;28;20142;-67
2023/01/31 10:30:23;;;;;;;6.93;1.90;;;10.60;99.90;;;;;;5095107;28;20087;-67
2023/01/31 10:32:58;;;;;;;9.35;2.03;;;10.60;99.90;;;;;;5097810;28;20422;-65
2023/01/31 10:35:34;;;;;;;6.35;1.90;;;10.50;99.90;;;;;;5099426;28;20081;-68
2023/01/31 10:38:13;;;;;;;5.95;1.90;;;10.60;99.90;;;;;;5090395;28;20090;-68
2023/01/31 10:40:44;;;;;;;12.68;1.95;;;10.50;99.90;;;;;;5098183;28;20076;-65
2023/01/31 10:43:43;;;;;;;10.38;1.95;;;10.40;99.90;;;;;;5095416;28;20124;-68
2023/01/31 10:46:12;;;;;;;3.08;1.75;;;10.40;99.90;;;;;;5035644;28;20104;-66
2023/01/31 10:48:41;;;;;;;7.93;1.90;;;10.50;99.90;;;;;;5098864;28;20068;-68
2023/01/31 10:51:20;;;;;;;4.18;1.67;;;10.50;99.90;;;;;;5092007;28;20071;-69
2023/01/31 10:54:11;;;;;;;5.07;1.77;;;10.50;99.90;;;;;;5094610;28;20073;-66
2023/01/31 10:56:44;;;;;;;4.68;1.63;;;10.50;99.90;;;;;;5097965;28;20537;-66
2023/01/31 10:59:13;;;;;;;4.70;1.70;;;10.50;99.90;;;;;;5097115;28;20060;-68
2023/01/31 11:01:41;;;;;;;4.82;1.63;;;10.50;99.90;;;;;;5099813;28;20061;-67
2023/01/31 11:04:42;;;;;;;5.07;1.63;;;10.40;99.90;;;;;;5094631;28;20133;-67
2023/01/31 11:07:10;;;;;;;3.58;1.70;;;10.50;99.90;;;;;;5099363;28;20071;-68
2023/01/31 11:09:46;;;;;;;6.78;1.70;;;10.40;99.90;;;;;;5093737;28;20085;-67
2023/01/31 11:12:12;;;;;;;4.47;1.77;;;10.50;99.90;;;;;;5096479;28;20104;-66
2023/01/31 11:14:38;;;;;;;;;;;10.40;99.90;;;;;;5092646;28;20337;-67
2023/01/31 11:17:20;;;;;;;7.82;2.13;;;10.50;99.90;;;;;;5093322;28;20451;-66
2023/01/31 11:19:53;;;;;;;5.97;2.08;;;10.40;99.90;;;;;;5096085;28;20117;-65
2023/01/31 11:22:30;;;;;;;8.02;2.42;;;10.50;99.90;;;;;;5101184;28;20099;-65
2023/01/31 11:24:57;;;;;;;;;;;10.50;99.90;;;;;;5097535;28;20077;-68
2023/01/31 11:27:52;;;;;;;8.82;2.15;;;10.50;99.90;;;;;;5097160;28;19965;-66
2023/01/31 11:30:29;;;;;;;3.80;1.90;;;10.60;99.90;;;;;;5094724;28;20085;-67
2023/01/31 11:32:56;;;;;;;4.35;1.88;;;10.60;99.90;;;;;;5096433;28;20088;-65
2023/01/31 11:35:26;;;;;;;7.72;1.88;;;10.50;99.90;;;;;;5093165;28;20093;-65
2023/01/31 11:38:19;;;;;;;3.38;1.83;;;10.50;99.90;;;;;;5094317;28;20088;-67
2023/01/31 11:40:45;;;;;;;3.80;1.73;;;10.50;99.90;;;;;;5094903;28;20088;-66
2023/01/31 11:43:25;;;;;;;12.23;2.53;;;10.50;99.90;;;;;;5095196;28;20114;-66
2023/01/31 11:46:00;;;;;;;5.22;2.47;;;10.60;99.90;;;;;;5095038;28;20118;-65
2023/01/31 11:48:38;;;;;;;8.13;2.70;;;10.50;99.90;;;;;;5095588;28;20088;-64
2023/01/31 11:51:05;;;;;;;4.65;3.13;;;10.40;99.90;;;;;;5095294;28;20087;-66
2023/01/31 11:53:43;;;;;;;6.32;2.67;;;10.40;99.90;;;;;;5096821;28;20116;-65
2023/01/31 11:56:34;;;;;;;7.82;2.20;;;10.50;99.90;;;;;;5094669;28;20421;-67
2023/01/31 11:59:08;;;;;;;6.10;2.08;;;10.50;99.90;;;;;;5097657;28;20133;-66
2023/01/31 12:01:43;;;;;;;4.85;2.45;;;10.60;99.90;;;;;;5095600;28;20086;-65
2023/01/31 12:04:16;;;;;;;6.30;2.20;;;10.50;99.90;;;;;;5097621;28;20077;-65
2023/01/31 12:07:05;;;;;;;5.38;2.33;;;10.50;99.90;;;;;;5095666;28;20067;-65
2023/01/31 12:09:42;;;;;;;4.57;2.15;;;10.50;99.90;;;;;;5093530;28;20070;-65
2023/01/31 12:12:31;;;;;;;10.45;2.38;;;10.50;99.90;;;;;;5093611;28;20577;-67
2023/01/31 12:15:03;;;;;;;3.30;1.80;;;10.50;99.90;;;;;;5091054;28;20534;-67
2023/01/31 12:17:35;;;;;;;5.32;2.20;;;10.50;99.90;;;;;;5097023;28;20070;-66
2023/01/31 12:20:13;;;;;;;6.63;2.20;;;10.50;99.90;;;;;;5091710;28;20066;-66
2023/01/31 12:22:47;;;;;;;4.78;2.17;;;10.50;99.90;;;;;;5100548;28;20537;-66
2023/01/31 12:25:55;;;;;;;3.53;1.70;;;10.50;99.90;;;;;;5097105;28;20099;-66
2023/01/31 12:28:35;;;;;;;;;;;10.50;99.90;;;;;;5097501;28;20123;-64
2023/01/31 12:31:20;;;;;;;3.90;1.77;;;10.40;99.90;;;;;;5101344;28;19961;-64
2023/01/31 12:34:04;;;;;;;5.13;2.38;;;10.40;99.90;;;;;;5099866;28;21492;-65
2023/01/31 12:36:42;;;;;;;3.92;2.03;;;10.30;99.90;;;;;;5101127;28;20475;-65
2023/01/31 12:39:50;;;;;;;6.00;1.90;;;10.50;99.90;;;;;;5094571;28;20070;-67
2023/01/31 12:42:49;;;;;;;4.28;2.10;;;10.50;99.90;;;;;;5036182;28;20090;-66
2023/01/31 12:45:37;;;;;;;4.68;1.95;;;10.50;99.90;;;;;;5036367;28;20103;-66
2023/01/31 12:48:23;;;;;;;5.40;2.63;;;10.50;99.90;;;;;;5042167;28;20491;-65
2023/01/31 12:51:04;;;;;;;3.58;2.08;;;10.50;99.90;;;;;;5038759;28;20107;-65
2023/01/31 12:54:00;;;;;;;7.70;2.00;;;10.50;99.90;;;;;;5036432;28;20544;-65
2023/01/31 12:56:46;;;;;;;2.65;1.67;;;10.50;99.90;;;;;;5035066;28;20132;-66
2023/01/31 12:59:36;;;;;;;8.60;1.42;;;10.50;99.90;;;;;;5037286;28;20077;-66
2023/01/31 13:02:17;;;;;;;7.05;2.13;;;10.40;99.90;;;;;;5036029;28;20483;-65
2023/01/31 13:05:07;;;;;;;7.38;1.73;;;10.40;99.90;;;;;;5035921;28;20165;-66
2023/01/31 13:07:40;;;;;;;6.03;2.03;;;10.50;99.90;;;;;;5032246;28;20089;-64
2023/01/31 13:10:20;;;;;;;2.97;1.60;;;10.40;99.90;;;;;;5036672;28;20077;-66
2023/01/31 13:12:47;;;;;;;7.28;1.52;;;10.40;99.90;;;;;;5039201;28;20092;-64
2023/01/31 13:15:53;;;;;;;3.53;1.70;;;10.40;99.90;;;;;;5042167;28;20121;-65
2023/01/31 13:18:22;;;;;;;6.03;1.80;;;10.30;99.90;;;;;;5080043;28;20080;-66
2023/01/31 13:20:57;;;;;;;4.07;1.45;;;10.30;99.90;;;;;;5093290;28;20148;-65
2023/01/31 13:23:32;;;;;;;5.07;1.50;;;10.30;99.90;;;;;;5101953;28;20112;-66
2023/01/31 13:26:13;;;;;;;5.68;1.58;;;10.20;99.90;;;;;;5101639;28;20448;-65
2023/01/31 13:29:09;;;;;;;4.68;1.73;;;10.30;99.90;;;;;;5098014;28;20073;-66